Terminal Aerodrome Forecast
Issued by NWS

Home | Current Version | Previous Version | Text Only | Print | Product List | Glossary On
Versions: 1 2 3 4 5 6 7 8 9 10 11 12 13 14 15 16 17 18 19 20
000
FTUS45 KGJT 261129
TAFTEX
TAF
KTEX 261129Z 2612/2712 27011KT 1SM -SN VCSH BKN004 OVC013
      TEMPO 2612/2615 3SM -SN BR OVC012
     FM261500 27006KT P6SM VCSH SCT012 OVC025
     FM261900 28006KT P6SM VCSH BKN035
     FM262100 27006KT P6SM BKN050
     FM270100 14005KT P6SM SCT150=

USA.gov is the U.S. government's official web portal to all federal, state and local government web resources and services.